Time;durP1;ratioP1;P1;durP2;ratioP2;P2;SDS_P1;SDS_P2;PMS_P1;PMS_P2;Temp;Humidity;BMP_temperature;BMP_pressure;BME280_temperature;BME280_humidity;BME280_pressure;Samples;Min_cycle;Max_cycle;Signal;HPM_P1;HPM_P2
2022/04/08 00:00:40;;;;;;;3.85;1.05;;;10.10;99.90;;;;;;4952877;28;20050;-74
2022/04/08 00:03:06;;;;;;;3.45;1.42;;;10.10;99.90;;;;;;4973206;28;20026;-75
2022/04/08 00:05:32;;;;;;;5.53;1.48;;;10.10;99.90;;;;;;4965174;28;20030;-74
2022/04/08 00:07:57;;;;;;;3.35;1.08;;;10.10;99.90;;;;;;4978425;28;20150;-75
2022/04/08 00:10:23;;;;;;;5.82;1.02;;;10.10;99.90;;;;;;4968126;28;20023;-78
2022/04/08 00:12:48;;;;;;;1.77;0.70;;;10.10;99.90;;;;;;4967200;28;20030;-78
2022/04/08 00:15:14;;;;;;;5.72;1.55;;;10.10;99.90;;;;;;4978169;28;20485;-79
2022/04/08 00:17:40;;;;;;;7.30;2.40;;;10.00;99.90;;;;;;4960510;28;20030;-78
2022/04/08 00:20:06;;;;;;;2.75;1.30;;;10.00;99.90;;;;;;4978102;28;20112;-79
2022/04/08 00:22:33;;;;;;;4.07;0.77;;;10.00;99.90;;;;;;4974118;28;20477;-78
2022/04/08 00:24:59;;;;;;;8.20;2.20;;;10.00;99.90;;;;;;4955137;28;20058;-79
2022/04/08 00:27:24;;;;;;;4.82;0.93;;;10.00;99.90;;;;;;4983081;28;20027;-78
2022/04/08 00:29:50;;;;;;;8.20;1.52;;;10.00;99.90;;;;;;4993513;28;20052;-78
2022/04/08 00:32:15;;;;;;;3.50;1.08;;;10.00;99.90;;;;;;4988727;28;20026;-78
2022/04/08 00:34:41;;;;;;;6.75;0.90;;;10.10;99.90;;;;;;4999661;28;20042;-78
2022/04/08 00:37:06;;;;;;;7.22;1.10;;;10.00;99.90;;;;;;4995308;28;20110;-77
2022/04/08 00:39:32;;;;;;;4.50;1.13;;;10.10;99.90;;;;;;4984989;28;20041;-78
2022/04/08 00:42:01;;;;;;;2.00;0.70;;;10.00;99.90;;;;;;4991687;28;20035;-79
2022/04/08 00:44:26;;;;;;;9.10;2.30;;;10.00;99.90;;;;;;4963906;28;20552;-79
2022/04/08 00:46:52;;;;;;;5.15;1.35;;;10.00;99.90;;;;;;4974161;28;20050;-78
2022/04/08 00:49:18;;;;;;;5.85;1.00;;;9.90;99.90;;;;;;4976447;28;20030;-78
2022/04/08 00:51:44;;;;;;;4.10;0.77;;;10.00;99.90;;;;;;4981180;28;20027;-77
2022/04/08 00:54:10;;;;;;;3.78;1.30;;;9.90;99.90;;;;;;4977631;28;20025;-78
2022/04/08 00:56:36;;;;;;;4.43;1.02;;;9.90;99.90;;;;;;4964702;28;20106;-77
2022/04/08 00:59:02;;;;;;;3.85;1.13;;;9.90;99.90;;;;;;4955001;28;20027;-78
2022/04/08 01:01:28;;;;;;;6.75;1.23;;;9.90;99.90;;;;;;4968951;28;20035;-78
2022/04/08 01:03:54;;;;;;;5.40;0.88;;;9.90;99.90;;;;;;4973111;28;20027;-77
2022/04/08 01:06:20;;;;;;;4.78;1.10;;;9.90;99.90;;;;;;4988856;28;20035;-77
2022/04/08 01:08:49;;;;;;;5.93;1.95;;;10.00;99.90;;;;;;4975305;28;20023;-79
2022/04/08 01:11:18;;;;;;;2.42;0.70;;;10.00;99.90;;;;;;4972569;28;20035;-78
2022/04/08 01:13:43;;;;;;;3.33;0.95;;;9.90;99.90;;;;;;4970612;28;20014;-79
2022/04/08 01:16:09;;;;;;;4.57;1.15;;;9.80;99.90;;;;;;4963441;28;20106;-79
2022/04/08 01:18:36;;;;;;;4.70;2.13;;;9.80;99.90;;;;;;4977168;28;20508;-80
2022/04/08 01:21:05;;;;;;;2.78;0.90;;;9.80;99.90;;;;;;4979915;28;20065;-78
2022/04/08 01:23:34;;;;;;;2.17;0.95;;;9.70;99.90;;;;;;4959783;28;20077;-78
2022/04/08 01:26:03;;;;;;;2.65;0.98;;;9.80;99.90;;;;;;4977596;28;20031;-79
2022/04/08 01:28:28;;;;;;;4.20;0.75;;;9.80;99.90;;;;;;4966649;28;20613;-78
2022/04/08 01:30:55;;;;;;;8.27;2.47;;;9.70;99.90;;;;;;4980410;28;20066;-79
2022/04/08 01:33:20;;;;;;;4.95;0.80;;;9.70;99.90;;;;;;4998999;28;20047;-79
2022/04/08 01:35:46;;;;;;;7.22;0.95;;;9.60;99.90;;;;;;5005825;28;20070;-78
2022/04/08 01:38:11;;;;;;;4.80;1.20;;;9.60;99.90;;;;;;4982052;28;20026;-79
2022/04/08 01:40:37;;;;;;;6.40;1.58;;;9.60;99.90;;;;;;4990993;28;20015;-79
2022/04/08 01:43:02;;;;;;;2.90;1.00;;;9.60;99.90;;;;;;5002626;28;20018;-79
2022/04/08 01:45:28;;;;;;;5.20;1.10;;;9.60;99.90;;;;;;5003159;28;20307;-78
2022/04/08 01:47:53;;;;;;;4.75;1.15;;;9.60;99.90;;;;;;5004995;28;20006;-79
2022/04/08 01:50:20;;;;;;;4.30;0.70;;;9.50;99.90;;;;;;5004365;28;20045;-78
2022/04/08 01:52:46;;;;;;;3.05;0.82;;;9.50;99.90;;;;;;4999498;28;20042;-78
2022/04/08 01:55:12;;;;;;;4.13;1.13;;;9.40;99.90;;;;;;4992538;28;20030;-79
2022/04/08 01:57:38;;;;;;;5.32;1.30;;;9.40;99.90;;;;;;4996549;28;20098;-78
2022/04/08 02:00:04;;;;;;;4.93;1.35;;;9.30;99.90;;;;;;4977005;28;20114;-78
2022/04/08 02:02:30;;;;;;;14.07;1.92;;;9.30;99.90;;;;;;4975470;28;20033;-78
2022/04/08 02:04:55;;;;;;;3.97;0.80;;;9.30;99.90;;;;;;4983865;28;20011;-79
2022/04/08 02:07:21;;;;;;;2.75;1.00;;;9.20;99.90;;;;;;5002754;28;20101;-79
2022/04/08 02:09:46;;;;;;;9.25;1.00;;;9.20;99.90;;;;;;5008047;28;20015;-78
2022/04/08 02:12:12;;;;;;;4.47;1.17;;;9.20;99.90;;;;;;4991951;28;20030;-78
2022/04/08 02:14:38;;;;;;;2.75;1.50;;;9.30;99.90;;;;;;5007779;28;20015;-79
2022/04/08 02:17:04;;;;;;;4.13;1.13;;;9.40;99.90;;;;;;5001828;28;20026;-79
2022/04/08 02:19:29;;;;;;;5.70;1.08;;;9.40;99.90;;;;;;4986843;28;20038;-78
2022/04/08 02:21:55;;;;;;;3.67;0.82;;;9.40;99.90;;;;;;5001698;28;20015;-79
2022/04/08 02:24:21;;;;;;;2.35;1.02;;;9.40;99.90;;;;;;4985865;28;20022;-78
2022/04/08 02:26:46;;;;;;;3.65;0.90;;;9.40;99.90;;;;;;4992135;28;20070;-79
2022/04/08 02:29:12;;;;;;;5.47;1.50;;;9.30;99.90;;;;;;4985970;28;20481;-78
2022/04/08 02:31:38;;;;;;;5.88;1.20;;;9.30;99.90;;;;;;4962053;28;20552;-78
2022/04/08 02:34:03;;;;;;;6.18;0.90;;;9.30;99.90;;;;;;4982183;28;20033;-79
2022/04/08 02:36:29;;;;;;;7.80;1.95;;;9.30;99.90;;;;;;4970755;28;20033;-79
2022/04/08 02:38:54;;;;;;;4.95;1.58;;;9.30;99.90;;;;;;4978259;28;20036;-78
2022/04/08 02:41:20;;;;;;;6.70;1.05;;;9.20;99.90;;;;;;4962218;28;20034;-78
2022/04/08 02:43:45;;;;;;;4.95;1.17;;;9.20;99.90;;;;;;4960193;28;20037;-78
2022/04/08 02:46:13;;;;;;;6.88;2.15;;;9.20;99.90;;;;;;4969692;28;20050;-79
2022/04/08 02:48:38;;;;;;;5.63;0.68;;;9.10;99.90;;;;;;4958660;28;20077;-79
2022/04/08 02:51:04;;;;;;;5.75;1.33;;;9.10;99.90;;;;;;4968013;28;20039;-79
2022/04/08 02:53:30;;;;;;;4.63;1.15;;;9.10;99.90;;;;;;4961554;28;20022;-78
2022/04/08 02:55:55;;;;;;;5.40;1.23;;;9.10;99.90;;;;;;4980532;28;20022;-79
2022/04/08 02:58:21;;;;;;;4.53;1.30;;;9.10;99.90;;;;;;4969066;28;20023;-78
2022/04/08 03:00:47;;;;;;;3.20;0.93;;;9.00;99.90;;;;;;4977622;28;20023;-79
2022/04/08 03:03:12;;;;;;;4.03;0.90;;;9.00;99.90;;;;;;4981006;28;20130;-79
2022/04/08 03:05:38;;;;;;;4.95;0.80;;;9.00;99.90;;;;;;4962455;28;20058;-78
2022/04/08 03:08:03;;;;;;;10.73;1.48;;;9.00;99.90;;;;;;4959893;28;20026;-79
2022/04/08 03:10:29;;;;;;;4.00;1.02;;;8.90;99.90;;;;;;4958080;28;20061;-79
2022/04/08 03:12:55;;;;;;;5.07;0.90;;;8.90;99.90;;;;;;4957653;28;20552;-79
2022/04/08 03:15:20;;;;;;;7.28;1.23;;;8.90;99.90;;;;;;4980283;28;20057;-79
2022/04/08 03:17:46;;;;;;;6.97;1.70;;;8.90;99.90;;;;;;4981454;28;20033;-79
2022/04/08 03:20:12;;;;;;;2.35;0.70;;;8.80;99.90;;;;;;4958889;28;20069;-79
2022/04/08 03:22:37;;;;;;;4.63;1.35;;;8.80;99.90;;;;;;4955535;28;20292;-79
2022/04/08 03:25:03;;;;;;;5.85;1.35;;;8.90;99.90;;;;;;4961969;28;20034;-78
2022/04/08 03:27:29;;;;;;;6.45;1.70;;;8.80;99.90;;;;;;4978142;28;20054;-78
2022/04/08 03:29:55;;;;;;;2.95;0.80;;;8.80;99.90;;;;;;4965559;28;20507;-80
2022/04/08 03:32:20;;;;;;;4.60;1.27;;;8.80;99.90;;;;;;4958445;28;20385;-79
2022/04/08 03:34:46;;;;;;;5.15;1.10;;;8.80;99.90;;;;;;4962828;28;20019;-78
2022/04/08 03:37:11;;;;;;;4.03;1.08;;;8.80;99.90;;;;;;4957708;28;20027;-79
2022/04/08 03:39:37;;;;;;;4.47;1.05;;;8.80;99.90;;;;;;4954818;28;20019;-79
2022/04/08 03:42:03;;;;;;;4.72;1.42;;;8.80;99.90;;;;;;4963557;28;20034;-81
2022/04/08 03:44:29;;;;;;;7.43;1.00;;;8.80;99.90;;;;;;4956350;28;20035;-79
2022/04/08 03:46:54;;;;;;;6.78;1.30;;;8.90;99.90;;;;;;4955380;28;20029;-79
2022/04/08 03:49:21;;;;;;;2.40;1.00;;;8.80;99.90;;;;;;4972307;28;20023;-80
2022/04/08 03:51:47;;;;;;;4.75;0.80;;;8.80;99.90;;;;;;4961320;28;20027;-79
2022/04/08 03:54:13;;;;;;;5.70;1.42;;;8.80;99.90;;;;;;4974194;28;20033;-79
2022/04/08 03:56:43;;;;;;;6.85;1.50;;;8.80;99.90;;;;;;4956911;28;20034;-80
2022/04/08 03:59:09;;;;;;;4.27;0.87;;;8.80;99.90;;;;;;4958581;28;20027;-79
2022/04/08 04:01:36;;;;;;;2.97;0.93;;;8.80;99.90;;;;;;4957435;28;20085;-79
2022/04/08 04:04:02;;;;;;;4.75;1.20;;;8.70;99.90;;;;;;4959158;28;20027;-79
2022/04/08 04:06:27;;;;;;;2.97;0.90;;;8.70;99.90;;;;;;4956244;28;20066;-80
2022/04/08 04:08:53;;;;;;;2.95;1.33;;;8.80;99.90;;;;;;4973393;28;20030;-78
2022/04/08 04:11:18;;;;;;;4.45;1.08;;;8.70;99.90;;;;;;4957396;28;20141;-79
2022/04/08 04:13:44;;;;;;;8.38;1.75;;;8.80;99.90;;;;;;4967363;28;20015;-79
2022/04/08 04:16:11;;;;;;;4.60;1.30;;;8.80;99.90;;;;;;4977737;28;20027;-79
2022/04/08 04:18:36;;;;;;;5.90;1.05;;;8.80;99.90;;;;;;4955929;28;20030;-79
2022/04/08 04:21:03;;;;;;;4.50;1.00;;;8.80;99.90;;;;;;4980343;28;20022;-79
2022/04/08 04:23:29;;;;;;;5.28;1.08;;;8.80;99.90;;;;;;4972510;28;20042;-79
2022/04/08 04:25:54;;;;;;;2.70;0.47;;;8.70;99.90;;;;;;4959143;28;20039;-79
2022/04/08 04:28:20;;;;;;;7.68;1.65;;;8.70;99.90;;;;;;4958522;28;20033;-79
2022/04/08 04:30:45;;;;;;;6.47;1.42;;;8.70;99.90;;;;;;4959587;28;20031;-79
2022/04/08 04:33:11;;;;;;;6.38;1.45;;;8.60;99.90;;;;;;4975945;28;20023;-79
2022/04/08 04:35:38;;;;;;;6.03;1.83;;;8.60;99.90;;;;;;4958081;28;20031;-79
2022/04/08 04:38:04;;;;;;;8.10;1.30;;;8.70;99.90;;;;;;4960859;28;20046;-79
2022/04/08 04:40:29;;;;;;;6.65;1.20;;;8.70;99.90;;;;;;4974512;28;20023;-79
2022/04/08 04:42:58;;;;;;;3.65;1.13;;;8.60;99.90;;;;;;4981466;28;20050;-80
2022/04/08 04:45:24;;;;;;;4.60;1.23;;;8.60;99.90;;;;;;4956571;28;20023;-78
2022/04/08 04:47:49;;;;;;;10.02;1.50;;;8.50;99.90;;;;;;4959409;28;20504;-79
2022/04/08 04:50:15;;;;;;;2.92;0.90;;;8.50;99.90;;;;;;4971661;28;20103;-79
2022/04/08 04:52:40;;;;;;;4.30;1.10;;;8.50;99.90;;;;;;4957994;28;20089;-79
2022/04/08 04:55:06;;;;;;;5.30;1.23;;;8.50;99.90;;;;;;4974837;28;20019;-79
2022/04/08 04:57:32;;;;;;;9.30;1.80;;;8.50;99.90;;;;;;4960476;28;20035;-80
2022/04/08 04:59:58;;;;;;;4.63;1.10;;;8.60;99.90;;;;;;4958280;28;20027;-80
2022/04/08 05:02:23;;;;;;;8.65;2.13;;;8.60;99.90;;;;;;4963948;28;20050;-81
2022/04/08 05:04:49;;;;;;;5.57;1.40;;;8.60;99.90;;;;;;4965768;28;20038;-79
2022/04/08 05:07:14;;;;;;;2.80;1.10;;;8.60;99.90;;;;;;4972843;28;20034;-79
2022/04/08 05:09:41;;;;;;;3.53;1.20;;;8.60;99.90;;;;;;4964948;28;20074;-79
2022/04/08 05:12:08;;;;;;;3.58;1.02;;;8.60;99.90;;;;;;4980896;28;20027;-79
2022/04/08 05:14:33;;;;;;;8.82;1.70;;;8.60;99.90;;;;;;4969307;28;20029;-79
2022/04/08 05:16:59;;;;;;;5.95;1.17;;;8.60;99.90;;;;;;4966875;28;20018;-79
2022/04/08 05:19:25;;;;;;;4.65;0.70;;;8.60;99.90;;;;;;4986074;28;20073;-80
2022/04/08 05:21:52;;;;;;;6.55;1.55;;;8.60;99.90;;;;;;4984857;28;20058;-80
2022/04/08 05:24:18;;;;;;;5.35;1.10;;;8.70;99.90;;;;;;4965980;28;20030;-79
2022/04/08 05:26:44;;;;;;;8.18;1.40;;;8.70;99.90;;;;;;4983557;28;20496;-80
2022/04/08 05:29:09;;;;;;;7.63;1.70;;;8.70;99.90;;;;;;4976802;28;20061;-80
2022/04/08 05:31:35;;;;;;;5.85;0.80;;;8.80;99.90;;;;;;4980295;28;20130;-80
2022/04/08 05:34:00;;;;;;;5.38;0.93;;;8.80;99.90;;;;;;4966192;28;20033;-79
2022/04/08 05:36:26;;;;;;;6.95;1.30;;;8.80;99.90;;;;;;4983702;28;20038;-79
2022/04/08 05:38:52;;;;;;;11.10;2.10;;;8.80;99.90;;;;;;4964120;28;20019;-79
2022/04/08 05:41:17;;;;;;;6.10;1.63;;;8.80;99.90;;;;;;4977681;28;20055;-79
2022/04/08 05:43:44;;;;;;;5.53;1.10;;;8.90;99.90;;;;;;4973415;28;20066;-80
2022/04/08 05:46:10;;;;;;;8.32;1.88;;;8.90;99.90;;;;;;4961051;28;20051;-78
2022/04/08 05:48:36;;;;;;;6.78;1.55;;;8.90;99.90;;;;;;4977094;28;20165;-80
2022/04/08 05:51:02;;;;;;;5.18;1.30;;;9.00;99.90;;;;;;4974416;28;20038;-79
2022/04/08 05:53:27;;;;;;;7.57;1.75;;;9.00;99.90;;;;;;4976229;28;20027;-79
2022/04/08 05:56:03;;;;;;;7.18;1.45;;;9.00;99.90;;;;;;4978193;28;20027;-78
2022/04/08 05:58:29;;;;;;;3.58;1.27;;;9.00;99.90;;;;;;4963546;28;20062;-79
2022/04/08 06:00:55;;;;;;;4.28;1.42;;;9.10;99.90;;;;;;4965515;28;20225;-79
2022/04/08 06:03:20;;;;;;;6.53;2.33;;;9.10;99.90;;;;;;4960241;28;20046;-79
2022/04/08 06:05:46;;;;;;;5.47;1.00;;;9.10;99.90;;;;;;4964353;28;20027;-79
2022/04/08 06:08:11;;;;;;;4.95;1.13;;;9.10;99.90;;;;;;4961547;28;20058;-79
2022/04/08 06:10:37;;;;;;;10.75;2.13;;;9.20;99.90;;;;;;4980381;28;20099;-79
2022/04/08 06:13:03;;;;;;;4.15;1.10;;;9.20;99.90;;;;;;4957838;28;20396;-79
2022/04/08 06:15:29;;;;;;;7.70;1.33;;;9.10;99.90;;;;;;4977134;28;20023;-79
2022/04/08 06:17:55;;;;;;;6.57;1.15;;;9.20;99.90;;;;;;4979359;28;20089;-80
2022/04/08 06:20:22;;;;;;;4.78;1.45;;;9.20;99.90;;;;;;4982674;28;20027;-79
2022/04/08 06:22:49;;;;;;;6.95;1.52;;;9.10;99.90;;;;;;4983501;28;20027;-78
2022/04/08 06:25:17;;;;;;;3.55;1.00;;;9.10;99.90;;;;;;4963852;28;20056;-78
2022/04/08 06:27:46;;;;;;;8.35;1.52;;;9.00;99.90;;;;;;4968990;28;20029;-79
2022/04/08 06:30:14;;;;;;;3.63;1.23;;;9.00;99.90;;;;;;4971945;28;20408;-78
2022/04/08 06:32:42;;;;;;;6.18;1.90;;;9.10;99.90;;;;;;4977948;28;20019;-80
2022/04/08 06:35:07;;;;;;;3.28;0.80;;;9.10;99.90;;;;;;4987130;28;20479;-79
2022/04/08 06:37:34;;;;;;;3.38;0.90;;;9.10;99.90;;;;;;4978005;28;20053;-79
2022/04/08 06:40:10;;;;;;;10.77;1.83;;;9.20;99.90;;;;;;4981890;28;20049;-79
2022/04/08 06:42:38;;;;;;;4.00;0.80;;;9.30;99.90;;;;;;4963779;28;20034;-78
2022/04/08 06:45:05;;;;;;;3.95;0.95;;;9.20;99.90;;;;;;4962808;28;20481;-80
2022/04/08 06:47:30;;;;;;;7.32;1.15;;;9.20;99.90;;;;;;4966699;28;20050;-78
2022/04/08 06:49:57;;;;;;;5.97;0.93;;;9.30;99.90;;;;;;4961773;28;20105;-79
2022/04/08 06:52:22;;;;;;;3.38;1.00;;;9.30;99.90;;;;;;4977044;28;20126;-79
2022/04/08 06:54:48;;;;;;;2.55;1.17;;;9.30;99.90;;;;;;4982539;28;20493;-79
2022/04/08 06:57:13;;;;;;;5.78;1.13;;;9.30;99.90;;;;;;4982242;28;20023;-79
2022/04/08 06:59:40;;;;;;;3.33;0.90;;;9.30;99.90;;;;;;4962964;28;20026;-79
2022/04/08 07:02:06;;;;;;;4.55;1.10;;;9.20;99.90;;;;;;4973785;28;20456;-80
2022/04/08 07:04:32;;;;;;;5.53;1.58;;;9.20;99.90;;;;;;4979567;28;20046;-78
2022/04/08 07:06:57;;;;;;;5.95;1.73;;;9.10;99.90;;;;;;4975580;28;20494;-79
2022/04/08 07:09:23;;;;;;;3.75;1.00;;;8.90;99.90;;;;;;4953942;28;20027;-79
2022/04/08 07:11:48;;;;;;;3.58;1.00;;;8.80;99.90;;;;;;4958480;28;20061;-79
2022/04/08 07:14:15;;;;;;;5.18;1.30;;;8.70;99.90;;;;;;4954291;28;20023;-79
2022/04/08 07:16:43;;;;;;;2.03;0.80;;;8.70;99.90;;;;;;4981162;28;20026;-79
2022/04/08 07:19:10;;;;;;;3.65;0.80;;;8.80;99.90;;;;;;4962262;28;20105;-78
2022/04/08 07:21:35;;;;;;;3.70;1.65;;;8.80;99.90;;;;;;4965030;28;20126;-78
2022/04/08 07:24:01;;;;;;;3.75;0.70;;;8.60;99.90;;;;;;4961370;28;20422;-79
2022/04/08 07:26:27;;;;;;;7.35;1.52;;;8.50;99.90;;;;;;4964389;28;20097;-78
2022/04/08 07:28:52;;;;;;;4.10;1.15;;;8.50;99.90;;;;;;4978417;28;20520;-80
2022/04/08 07:31:18;;;;;;;4.55;1.00;;;8.50;99.90;;;;;;4967414;28;20081;-79
2022/04/08 07:33:43;;;;;;;4.53;1.60;;;8.50;99.90;;;;;;4970817;28;20471;-78
2022/04/08 07:36:09;;;;;;;2.85;0.80;;;8.40;99.90;;;;;;4957862;28;20035;-79
2022/04/08 07:38:35;;;;;;;2.10;1.00;;;8.30;99.90;;;;;;4959574;28;20064;-79
2022/04/08 07:41:00;;;;;;;2.55;0.95;;;8.40;99.90;;;;;;4958387;28;20031;-79
2022/04/08 07:43:26;;;;;;;10.25;1.63;;;8.50;99.90;;;;;;4975123;28;20030;-79
2022/04/08 07:45:52;;;;;;;6.22;0.98;;;8.40;99.90;;;;;;4956586;28;20023;-79
2022/04/08 07:48:18;;;;;;;2.10;1.17;;;8.40;99.90;;;;;;4958863;28;20030;-79
2022/04/08 07:50:43;;;;;;;2.58;0.70;;;8.40;99.90;;;;;;4976990;28;20091;-80
2022/04/08 07:53:09;;;;;;;2.28;1.08;;;8.40;99.90;;;;;;4968690;28;20077;-80
2022/04/08 07:55:35;;;;;;;2.10;0.80;;;8.50;99.90;;;;;;4977124;28;20018;-79
2022/04/08 07:58:00;;;;;;;1.30;0.82;;;8.50;99.90;;;;;;4975308;28;20081;-79
2022/04/08 08:00:27;;;;;;;4.28;0.60;;;8.60;99.90;;;;;;4965358;28;20029;-79
2022/04/08 08:02:53;;;;;;;2.83;0.75;;;8.60;99.90;;;;;;4957178;28;20507;-79
2022/04/08 08:05:23;;;;;;;4.05;0.80;;;8.70;99.90;;;;;;4978021;28;20031;-79
2022/04/08 08:07:57;;;;;;;3.88;1.42;;;8.70;99.90;;;;;;4974957;28;20026;-79
2022/04/08 08:10:28;;;;;;;1.42;0.82;;;8.80;99.90;;;;;;4981796;28;20030;-79
2022/04/08 08:12:55;;;;;;;5.75;1.00;;;8.90;99.90;;;;;;4957379;28;20026;-78
2022/04/08 08:15:21;;;;;;;3.03;0.73;;;9.00;99.90;;;;;;4978924;28;20022;-79
2022/04/08 08:17:48;;;;;;;2.70;1.02;;;9.20;99.90;;;;;;4980470;28;20050;-78
2022/04/08 08:20:15;;;;;;;1.50;0.80;;;9.30;99.90;;;;;;4969845;28;20091;-79
2022/04/08 08:22:44;;;;;;;0.65;0.57;;;9.20;99.90;;;;;;4981774;28;20030;-79
2022/04/08 08:25:11;;;;;;;2.70;0.73;;;9.20;99.90;;;;;;4960287;28;20066;-76
2022/04/08 08:27:44;;;;;;;4.82;1.33;;;9.20;99.90;;;;;;4975171;28;20029;-78
2022/04/08 08:30:12;;;;;;;3.60;0.80;;;9.00;99.90;;;;;;4981401;28;20019;-78
2022/04/08 08:32:39;;;;;;;1.85;0.80;;;8.80;99.90;;;;;;4967083;28;20034;-78
2022/04/08 08:35:09;;;;;;;1.25;0.47;;;8.90;99.90;;;;;;4960070;28;20019;-79
2022/04/08 08:37:35;;;;;;;3.33;0.60;;;8.80;99.90;;;;;;4978819;28;20050;-78
2022/04/08 08:40:04;;;;;;;4.53;0.65;;;8.90;99.90;;;;;;4978380;28;20481;-79
2022/04/08 08:42:31;;;;;;;2.25;0.75;;;9.10;99.90;;;;;;4984831;28;20034;-78
2022/04/08 08:44:57;;;;;;;1.83;0.60;;;9.20;99.90;;;;;;4963800;28;20520;-80
2022/04/08 08:47:27;;;;;;;2.53;0.73;;;9.40;99.90;;;;;;4960026;28;20027;-78
2022/04/08 08:49:54;;;;;;;4.00;1.00;;;9.40;99.90;;;;;;4977601;28;20042;-78
2022/04/08 08:52:19;;;;;;;2.60;0.88;;;9.20;99.90;;;;;;4960533;28;20042;-78
2022/04/08 08:54:46;;;;;;;3.35;0.65;;;9.40;99.90;;;;;;4963504;28;20428;-78
2022/04/08 08:57:17;;;;;;;1.63;0.45;;;9.30;99.90;;;;;;4982881;28;20481;-79
2022/04/08 08:59:44;;;;;;;1.48;1.15;;;9.20;99.90;;;;;;4975163;28;20019;-78
2022/04/08 09:02:12;;;;;;;2.40;0.38;;;9.20;99.90;;;;;;4977260;28;20089;-78
2022/04/08 09:04:41;;;;;;;1.02;0.60;;;9.20;99.90;;;;;;4974387;28;20469;-77
2022/04/08 09:07:28;;;;;;;1.30;0.60;;;9.10;99.90;;;;;;4965624;28;20031;-79
2022/04/08 09:09:58;;;;;;;1.63;0.73;;;9.10;99.90;;;;;;4976569;28;20083;-79
2022/04/08 09:12:25;;;;;;;1.65;0.88;;;9.20;99.90;;;;;;4981984;28;20022;-79
2022/04/08 09:14:53;;;;;;;2.78;1.05;;;9.20;99.90;;;;;;4974129;28;20027;-78
2022/04/08 09:17:19;;;;;;;1.00;0.73;;;9.10;99.90;;;;;;4973685;28;20420;-79
2022/04/08 09:19:50;;;;;;;1.95;0.90;;;9.20;99.90;;;;;;4976743;28;20015;-79
2022/04/08 09:22:16;;;;;;;0.93;0.68;;;9.30;99.90;;;;;;4980695;28;20027;-78
2022/04/08 09:24:43;;;;;;;4.05;1.15;;;9.70;99.90;;;;;;4964897;28;20030;-78
2022/04/08 09:27:09;;;;;;;1.33;0.70;;;9.40;99.90;;;;;;4978079;28;20366;-80
2022/04/08 09:29:35;;;;;;;1.30;0.65;;;9.40;99.90;;;;;;4979282;28;20085;-80
2022/04/08 09:32:08;;;;;;;2.80;1.95;;;9.20;99.90;;;;;;4985282;28;20516;-78
2022/04/08 09:34:33;;;;;;;1.00;0.47;;;9.30;99.90;;;;;;4977776;28;20106;-78
2022/04/08 09:37:10;;;;;;;1.02;0.70;;;9.20;99.90;;;;;;4978065;28;20077;-78
2022/04/08 09:39:37;;;;;;;2.08;1.38;;;9.10;99.90;;;;;;4963654;28;20015;-79
2022/04/08 09:42:06;;;;;;;1.10;0.70;;;8.90;99.90;;;;;;4971167;28;20054;-77
2022/04/08 09:44:35;;;;;;;2.78;1.10;;;8.80;99.90;;;;;;4981882;28;20015;-79
2022/04/08 09:47:01;;;;;;;0.88;0.40;;;8.80;99.90;;;;;;4962225;28;20466;-79
2022/04/08 09:49:26;;;;;;;0.60;0.40;;;8.80;99.90;;;;;;4965507;28;20053;-78
2022/04/08 09:51:54;;;;;;;1.27;0.50;;;8.80;99.90;;;;;;4975964;28;20055;-79
2022/04/08 09:54:21;;;;;;;1.35;0.75;;;8.60;99.90;;;;;;4974678;28;20638;-78
2022/04/08 09:56:48;;;;;;;0.80;0.60;;;8.60;99.90;;;;;;4974644;28;20015;-78
2022/04/08 09:59:21;;;;;;;2.20;1.10;;;8.70;99.90;;;;;;4973955;28;20757;-79
2022/04/08 10:01:48;;;;;;;1.33;0.60;;;8.70;99.90;;;;;;4977420;28;20484;-77
2022/04/08 10:04:14;;;;;;;1.33;0.52;;;8.70;99.90;;;;;;4981834;28;20022;-79
2022/04/08 10:06:42;;;;;;;2.95;0.77;;;8.60;99.90;;;;;;4952624;28;20050;-77
2022/04/08 10:09:10;;;;;;;1.15;0.68;;;8.60;99.90;;;;;;4962657;28;20157;-78
2022/04/08 10:11:45;;;;;;;1.52;0.57;;;8.50;99.90;;;;;;4957700;28;20038;-78
2022/04/08 10:14:23;;;;;;;0.50;0.40;;;8.70;99.90;;;;;;4963942;28;20027;-81
2022/04/08 10:16:52;;;;;;;0.73;0.50;;;8.60;99.90;;;;;;4975294;28;20165;-78
2022/04/08 10:19:18;;;;;;;2.70;0.77;;;8.70;99.90;;;;;;4961978;28;20465;-80
2022/04/08 10:21:51;;;;;;;0.73;0.43;;;8.50;99.90;;;;;;4978295;28;20023;-80
2022/04/08 10:24:25;;;;;;;0.93;0.60;;;8.60;99.90;;;;;;4977562;28;20023;-79
2022/04/08 10:27:04;;;;;;;1.13;0.50;;;8.50;99.90;;;;;;4981027;28;20031;-79
2022/04/08 10:29:32;;;;;;;1.63;0.40;;;8.50;99.90;;;;;;4957826;28;20031;-79
2022/04/08 10:32:04;;;;;;;0.30;0.30;;;8.50;99.90;;;;;;4959739;28;20031;-79
2022/04/08 10:34:32;;;;;;;1.67;0.40;;;8.30;99.90;;;;;;4974482;28;20038;-78
2022/04/08 10:37:12;;;;;;;1.70;0.77;;;8.30;99.90;;;;;;4988342;28;20034;-78
2022/04/08 10:39:38;;;;;;;0.30;0.30;;;8.40;99.90;;;;;;4976080;28;20577;-77
2022/04/08 10:42:06;;;;;;;0.55;0.55;;;8.40;99.90;;;;;;4961637;28;20037;-77
2022/04/08 10:44:36;;;;;;;0.75;0.50;;;8.60;99.90;;;;;;4979730;28;20030;-77
2022/04/08 10:47:10;;;;;;;0.35;0.30;;;8.60;99.90;;;;;;4967028;28;20027;-77
2022/04/08 10:49:53;;;;;;;0.57;0.20;;;9.00;99.90;;;;;;4975475;28;20098;-79
2022/04/08 10:52:22;;;;;;;0.90;0.35;;;8.90;99.90;;;;;;4957248;28;20166;-78
2022/04/08 10:54:49;;;;;;;0.55;0.35;;;8.80;99.90;;;;;;4970766;28;20039;-77
2022/04/08 10:57:15;;;;;;;0.77;0.30;;;9.30;99.90;;;;;;4965831;28;20027;-78
2022/04/08 10:59:51;;;;;;;0.63;0.30;;;9.70;99.90;;;;;;4956436;28;20078;-76
2022/04/08 11:02:17;;;;;;;1.10;0.30;;;9.40;99.90;;;;;;4978635;28;20027;-78
2022/04/08 11:04:43;;;;;;;0.85;0.35;;;9.30;99.90;;;;;;4975576;28;20053;-79
2022/04/08 11:07:08;;;;;;;4.30;0.50;;;9.80;99.90;;;;;;4964894;28;20026;-77
2022/04/08 11:09:35;;;;;;;0.30;0.20;;;9.60;99.90;;;;;;4976363;28;20035;-78
2022/04/08 11:12:01;;;;;;;0.45;0.38;;;10.00;99.90;;;;;;4965827;28;20038;-76
2022/04/08 11:14:29;;;;;;;1.65;0.43;;;9.60;99.90;;;;;;4980758;28;20042;-77
2022/04/08 11:16:55;;;;;;;1.48;0.60;;;9.00;99.90;;;;;;4978786;28;20517;-78
2022/04/08 11:19:21;;;;;;;0.82;0.50;;;9.20;99.90;;;;;;4961460;28;20026;-77
2022/04/08 11:21:48;;;;;;;0.93;0.73;;;9.60;99.90;;;;;;4974084;28;20022;-78
2022/04/08 11:24:16;;;;;;;1.35;0.60;;;9.10;99.90;;;;;;4958020;28;20027;-77
2022/04/08 11:26:52;;;;;;;2.10;0.60;;;8.60;99.90;;;;;;4971357;28;20062;-76
2022/04/08 11:29:20;;;;;;;1.48;0.50;;;9.00;99.90;;;;;;4964215;28;20031;-77
2022/04/08 11:31:46;;;;;;;1.73;0.50;;;8.70;99.90;;;;;;4982151;28;20485;-78
2022/04/08 11:34:13;;;;;;;0.60;0.40;;;8.80;99.90;;;;;;4975551;28;20027;-76
2022/04/08 11:36:39;;;;;;;1.30;0.77;;;8.90;99.90;;;;;;4975792;28;20106;-77
2022/04/08 11:39:06;;;;;;;0.40;0.40;;;8.50;99.90;;;;;;4977369;28;20058;-77
2022/04/08 11:41:36;;;;;;;1.55;0.70;;;8.60;99.90;;;;;;4980174;28;20038;-78
2022/04/08 11:44:03;;;;;;;1.10;0.50;;;9.00;99.90;;;;;;4959661;28;20051;-78
2022/04/08 11:46:29;;;;;;;0.60;0.50;;;9.20;99.90;;;;;;4977042;28;20034;-77
2022/04/08 11:48:55;;;;;;;0.80;0.73;;;9.20;99.90;;;;;;4977840;28;20030;-75
2022/04/08 11:51:21;;;;;;;0.57;0.52;;;9.30;99.90;;;;;;4958440;28;20070;-76
2022/04/08 11:53:50;;;;;;;1.48;0.70;;;9.40;99.90;;;;;;4963780;28;20033;-77
2022/04/08 11:56:26;;;;;;;2.70;1.48;;;9.30;99.90;;;;;;4981250;28;20050;-76
2022/04/08 11:58:58;;;;;;;3.40;0.80;;;9.20;99.90;;;;;;4977400;28;20093;-77
2022/04/08 12:01:23;;;;;;;4.30;2.28;;;9.40;99.90;;;;;;4968193;28;20375;-77
2022/04/08 12:03:52;;;;;;;1.98;1.30;;;9.40;99.90;;;;;;4979485;28;20058;-76
2022/04/08 12:06:18;;;;;;;2.40;1.50;;;9.40;99.90;;;;;;4974853;28;20616;-76
2022/04/08 12:08:46;;;;;;;3.30;1.27;;;9.30;99.90;;;;;;4974083;28;20109;-78
2022/04/08 12:11:12;;;;;;;1.23;1.10;;;8.60;99.90;;;;;;4978020;28;20033;-77
2022/04/08 12:13:40;;;;;;;0.73;0.70;;;8.50;99.90;;;;;;4979185;28;20106;-78
2022/04/08 12:16:09;;;;;;;1.00;0.63;;;8.60;99.90;;;;;;4977802;28;20489;-78
2022/04/08 12:18:35;;;;;;;1.60;0.60;;;8.70;99.90;;;;;;4982486;28;20026;-77
2022/04/08 12:21:06;;;;;;;0.75;0.75;;;8.90;99.90;;;;;;4964484;28;20592;-77
2022/04/08 12:23:31;;;;;;;1.00;0.50;;;8.80;99.90;;;;;;4965284;28;20023;-76
2022/04/08 12:25:59;;;;;;;0.75;0.60;;;8.60;99.90;;;;;;5007840;28;20053;-76
2022/04/08 12:28:32;;;;;;;1.17;0.60;;;8.20;99.90;;;;;;4989531;28;20023;-77
2022/04/08 12:31:09;;;;;;;1.08;0.57;;;7.90;99.90;;;;;;4985025;28;20046;-76
2022/04/08 12:33:35;;;;;;;0.50;0.50;;;8.20;99.90;;;;;;4975560;28;20095;-77
2022/04/08 12:36:00;;;;;;;1.42;0.75;;;8.10;99.90;;;;;;4997819;28;20038;-77
2022/04/08 12:38:26;;;;;;;0.82;0.50;;;7.50;99.90;;;;;;4995228;28;20031;-78
2022/04/08 12:40:52;;;;;;;1.92;1.23;;;7.70;99.90;;;;;;4983218;28;20037;-78
2022/04/08 12:43:18;;;;;;;1.38;0.68;;;7.50;99.90;;;;;;4964563;28;20049;-79
2022/04/08 12:45:43;;;;;;;1.33;0.60;;;7.70;99.90;;;;;;4953653;28;20027;-79
2022/04/08 12:48:09;;;;;;;0.90;0.60;;;8.10;99.90;;;;;;4971038;28;20030;-77
2022/04/08 12:50:35;;;;;;;1.65;0.70;;;8.20;99.90;;;;;;4955502;28;20035;-78
2022/04/08 12:53:01;;;;;;;3.03;0.77;;;8.20;99.90;;;;;;4963391;28;20022;-78